createdAt,value
2022-11-02T00:01:40.984Z,53.04
2022-11-02T00:04:07.883Z,52.87
2022-11-02T00:06:34.686Z,53.02
2022-11-02T00:09:01.472Z,52.85
2022-11-02T00:11:28.394Z,52.98
2022-11-02T00:13:55.191Z,53.07
2022-11-02T00:16:22.950Z,53.37
2022-11-02T00:18:55.736Z,52.98
2022-11-02T00:21:25.196Z,53.35
2022-11-02T00:23:52.790Z,53.45
2022-11-02T00:26:19.892Z,53.52
2022-11-02T00:28:46.884Z,53.51
2022-11-02T00:31:13.643Z,53.32
2022-11-02T00:33:40.433Z,53.66
2022-11-02T00:36:07.556Z,53.48
2022-11-02T00:38:34.344Z,53.49
2022-11-02T00:41:01.148Z,53.66
2022-11-02T00:43:27.961Z,53.72
2022-11-02T00:45:54.740Z,53.61
2022-11-02T00:48:21.541Z,53.76
2022-11-02T00:50:48.318Z,53.78
2022-11-02T00:53:15.116Z,54.01
2022-11-02T00:55:41.932Z,53.68
2022-11-02T00:58:08.712Z,53.95
2022-11-02T01:00:35.507Z,54.15
2022-11-02T01:03:02.942Z,54.06
2022-11-02T01:05:30.472Z,54.00
2022-11-02T01:07:57.294Z,54.20
2022-11-02T01:10:26.058Z,53.95
2022-11-02T01:12:52.896Z,54.17
2022-11-02T01:15:19.872Z,54.18
2022-11-02T01:17:46.761Z,54.20
2022-11-02T01:20:13.560Z,54.08
2022-11-02T01:22:40.364Z,54.48
2022-11-02T01:25:07.847Z,54.32
2022-11-02T01:27:34.675Z,54.48
2022-11-02T01:30:01.649Z,54.38
2022-11-02T01:32:31.545Z,54.59
2022-11-02T01:34:58.313Z,54.48
2022-11-02T01:37:25.120Z,54.69
2022-11-02T01:39:51.931Z,54.63
2022-11-02T01:42:25.505Z,54.71
2022-11-02T01:44:52.530Z,54.82
2022-11-02T01:47:37.937Z,54.74
2022-11-02T01:50:18.124Z,54.75
2022-11-02T01:52:44.935Z,54.97
2022-11-02T01:55:23.205Z,54.79
2022-11-02T01:57:59.216Z,54.73
2022-11-02T02:00:26.348Z,54.76
2022-11-02T02:03:01.465Z,55.02
2022-11-02T02:05:29.739Z,54.71
2022-11-02T02:07:56.905Z,54.68
2022-11-02T02:10:23.680Z,54.72
2022-11-02T02:12:50.727Z,54.85
2022-11-02T02:15:17.863Z,54.93
2022-11-02T02:18:01.153Z,54.67
2022-11-02T02:20:45.281Z,54.76
2022-11-02T02:23:24.861Z,54.74
2022-11-02T02:26:23.242Z,54.88
2022-11-02T02:29:03.281Z,54.61
2022-11-02T02:31:58.348Z,55.07
2022-11-02T02:34:38.877Z,55.10
2022-11-02T02:37:13.600Z,55.29
2022-11-02T02:40:23.221Z,55.31
2022-11-02T02:42:57.251Z,55.54
2022-11-02T02:45:39.383Z,55.26
2022-11-02T02:48:18.144Z,55.27
2022-11-02T02:51:02.412Z,55.27
2022-11-02T02:53:38.526Z,55.39
2022-11-02T02:56:07.896Z,55.29
2022-11-02T02:58:52.682Z,55.46
2022-11-02T03:01:20.266Z,55.32
2022-11-02T03:03:47.737Z,55.20
2022-11-02T03:06:31.430Z,55.39
2022-11-02T03:09:17.982Z,55.41
2022-11-02T03:12:27.972Z,55.54
2022-11-02T03:15:05.835Z,55.46
2022-11-02T03:18:00.268Z,55.25
2022-11-02T03:21:07.776Z,55.58
2022-11-02T03:24:01.395Z,55.27
2022-11-02T03:27:06.907Z,55.42
2022-11-02T03:29:59.439Z,55.24
2022-11-02T03:32:57.575Z,55.33
2022-11-02T03:35:56.985Z,55.40
2022-11-02T03:38:49.771Z,55.26
2022-11-02T03:41:19.275Z,55.22
2022-11-02T03:43:49.008Z,55.10
2022-11-02T03:46:18.185Z,55.43
2022-11-02T03:48:50.653Z,55.10
2022-11-02T03:51:21.333Z,54.95
2022-11-02T03:54:07.095Z,55.14
2022-11-02T03:56:44.063Z,55.12
2022-11-02T03:59:10.876Z,55.22
2022-11-02T04:01:42.009Z,55.04
2022-11-02T04:04:09.111Z,55.21
2022-11-02T04:06:36.270Z,54.99
2022-11-02T04:09:03.513Z,55.04
2022-11-02T04:11:49.987Z,55.02
2022-11-02T04:14:35.517Z,55.07
2022-11-02T04:17:21.373Z,55.06
2022-11-02T04:19:49.891Z,55.22
2022-11-02T04:22:36.602Z,55.51
2022-11-02T04:25:16.409Z,55.21
2022-11-02T04:27:43.196Z,55.27
2022-11-02T04:30:10.810Z,55.25
2022-11-02T04:33:04.265Z,55.16
2022-11-02T04:35:31.791Z,55.30
2022-11-02T04:38:18.121Z,55.61
2022-11-02T04:40:45.221Z,55.43
2022-11-02T04:43:12.055Z,55.41
2022-11-02T04:45:39.000Z,55.55
2022-11-02T04:48:08.648Z,55.57
2022-11-02T04:50:36.607Z,55.60
2022-11-02T04:53:07.074Z,55.68
2022-11-02T04:55:34.679Z,55.58
2022-11-02T04:58:01.809Z,55.68
2022-11-02T05:00:28.861Z,55.65
2022-11-02T05:02:55.688Z,55.84
2022-11-02T05:05:22.528Z,55.85
2022-11-02T05:07:49.384Z,56.02
2022-11-02T05:10:16.384Z,56.08
2022-11-02T05:12:43.193Z,56.04
2022-11-02T05:15:10.212Z,56.03
2022-11-02T05:17:36.996Z,56.19
2022-11-02T05:20:04.881Z,56.39
2022-11-02T05:22:31.768Z,56.42
2022-11-02T05:24:59.037Z,56.15
2022-11-02T05:27:25.827Z,56.31
2022-11-02T05:29:52.661Z,56.36
2022-11-02T05:32:19.482Z,56.33
2022-11-02T05:34:46.272Z,56.32
2022-11-02T05:37:13.066Z,56.69
2022-11-02T05:39:39.875Z,56.65
2022-11-02T05:42:06.709Z,56.81
2022-11-02T05:44:33.565Z,56.81
2022-11-02T05:47:00.400Z,56.64
2022-11-02T05:49:27.207Z,56.92
2022-11-02T05:51:53.965Z,56.83
2022-11-02T05:54:21.367Z,56.78
2022-11-02T05:56:48.181Z,56.92
2022-11-02T05:59:14.980Z,57.01
2022-11-02T06:01:41.904Z,56.98
2022-11-02T06:04:08.786Z,57.30
2022-11-02T06:06:35.585Z,57.01
2022-11-02T06:09:06.877Z,57.07
2022-11-02T06:11:34.222Z,57.11
2022-11-02T06:14:02.637Z,57.22
2022-11-02T06:16:30.684Z,57.15
2022-11-02T06:18:57.735Z,57.16
2022-11-02T06:21:24.515Z,57.26
2022-11-02T06:23:51.434Z,57.08
2022-11-02T06:26:18.228Z,57.34
2022-11-02T06:28:45.054Z,57.35
2022-11-02T06:31:12.446Z,57.18
2022-11-02T06:33:39.217Z,57.20
2022-11-02T06:36:06.533Z,57.04
2022-11-02T06:38:33.597Z,57.35
2022-11-02T06:41:06.661Z,57.13
2022-11-02T06:43:34.584Z,57.21
2022-11-02T06:46:01.394Z,57.00
2022-11-02T06:48:33.306Z,57.20
2022-11-02T06:51:02.777Z,57.24
2022-11-02T06:53:29.591Z,57.29
2022-11-02T06:55:58.001Z,57.41
2022-11-02T06:58:25.200Z,57.33
2022-11-02T07:00:58.894Z,57.24
2022-11-02T07:03:26.672Z,57.32
2022-11-02T07:05:54.293Z,57.26
2022-11-02T07:08:22.130Z,57.30
2022-11-02T07:10:49.385Z,57.29
2022-11-02T07:13:16.198Z,57.33
2022-11-02T07:15:42.992Z,57.38
2022-11-02T07:18:09.806Z,57.17
2022-11-02T07:20:36.916Z,57.24
2022-11-02T07:23:05.430Z,57.22
2022-11-02T07:25:33.443Z,56.99
2022-11-02T07:28:01.892Z,57.17
2022-11-02T07:30:30.850Z,57.19
2022-11-02T07:32:58.094Z,57.05
2022-11-02T07:35:25.028Z,57.36
2022-11-02T07:38:09.453Z,57.28
2022-11-02T07:40:36.805Z,56.91
2022-11-02T07:43:04.621Z,56.93
2022-11-02T07:45:32.464Z,56.52
2022-11-02T07:47:59.338Z,56.83
2022-11-02T07:50:29.719Z,56.57
2022-11-02T07:52:58.244Z,56.46
2022-11-02T07:55:28.631Z,56.75
2022-11-02T07:58:04.014Z,56.47
2022-11-02T08:00:34.655Z,56.43
2022-11-02T08:03:04.157Z,56.11
2022-11-02T08:05:34.987Z,55.94
2022-11-02T08:08:04.063Z,55.56
2022-11-02T08:10:37.389Z,55.49
2022-11-02T08:13:08.673Z,55.23
2022-11-02T08:15:35.461Z,55.34
2022-11-02T08:18:13.598Z,55.08
2022-11-02T08:20:40.461Z,54.99
2022-11-02T08:23:07.788Z,55.02
2022-11-02T08:25:35.422Z,54.74
2022-11-02T08:28:03.045Z,54.80
2022-11-02T08:30:32.076Z,54.75
2022-11-02T08:33:05.458Z,54.64
2022-11-02T08:35:33.240Z,54.71
2022-11-02T08:38:00.225Z,54.69
2022-11-02T08:40:27.487Z,54.77
2022-11-02T08:42:59.510Z,54.42
2022-11-02T08:45:28.069Z,54.31
2022-11-02T08:47:55.137Z,53.99
2022-11-02T08:50:23.654Z,54.14
2022-11-02T08:52:50.724Z,53.88
2022-11-02T08:55:17.878Z,54.13
2022-11-02T08:58:05.517Z,53.82
2022-11-02T09:00:34.936Z,53.98
2022-11-02T09:03:10.941Z,53.85
2022-11-02T09:05:41.101Z,53.92
2022-11-02T09:08:16.700Z,53.88
2022-11-02T09:10:44.836Z,53.65
2022-11-02T09:13:14.644Z,53.31
2022-11-02T09:15:41.947Z,53.20
2022-11-02T09:18:09.385Z,53.05
2022-11-02T09:20:36.748Z,52.99
2022-11-02T09:23:03.737Z,52.82
2022-11-02T09:25:30.535Z,52.64
2022-11-02T09:27:58.353Z,52.24
2022-11-02T09:30:28.582Z,51.96
2022-11-02T09:33:04.951Z,51.80
2022-11-02T09:35:35.695Z,51.91
2022-11-02T09:38:02.732Z,51.92
2022-11-02T09:41:14.029Z,51.79
2022-11-02T09:43:46.401Z,51.78
2022-11-02T09:46:26.871Z,51.72
2022-11-02T09:49:20.023Z,51.86
2022-11-02T09:51:57.956Z,51.79
2022-11-02T09:54:52.301Z,51.64
2022-11-02T09:57:30.211Z,51.78
2022-11-02T09:59:57.760Z,51.61
2022-11-02T10:02:57.911Z,51.43
2022-11-02T10:05:52.833Z,51.27
2022-11-02T10:09:02.978Z,51.38
2022-11-02T10:11:52.105Z,50.90
2022-11-02T10:14:34.243Z,50.95
2022-11-02T10:17:27.679Z,50.57
2022-11-02T10:20:02.955Z,50.57
2022-11-02T10:22:37.766Z,50.43
2022-11-02T10:25:06.879Z,50.03
2022-11-02T10:27:39.415Z,50.08
2022-11-02T10:30:21.838Z,49.60
2022-11-02T10:32:52.908Z,49.66
2022-11-02T10:36:04.636Z,49.66
2022-11-02T10:39:00.823Z,49.81
2022-11-02T10:42:05.758Z,49.71
2022-11-02T10:44:45.389Z,49.46
2022-11-02T10:47:22.309Z,48.87
2022-11-02T10:50:16.893Z,48.85
2022-11-02T10:52:46.235Z,48.92
2022-11-02T10:55:30.681Z,48.77
2022-11-02T10:58:00.510Z,48.99
2022-11-02T11:00:34.670Z,48.69
2022-11-02T11:03:06.540Z,48.39
2022-11-02T11:05:38.125Z,48.18
2022-11-02T11:08:06.452Z,48.06
2022-11-02T11:10:38.474Z,48.01
2022-11-02T11:13:07.736Z,47.88
2022-11-02T11:15:50.422Z,47.61
2022-11-02T11:21:07.641Z,47.31
2022-11-02T11:23:34.660Z,47.36
2022-11-02T11:26:11.595Z,46.84
2022-11-02T11:28:56.082Z,46.49
2022-11-02T11:31:23.661Z,46.63
2022-11-02T11:33:56.834Z,46.24
2022-11-02T11:36:34.109Z,45.55
2022-11-02T11:39:24.863Z,45.79
2022-11-02T11:41:51.904Z,45.51
2022-11-02T11:44:19.333Z,45.09
2022-11-02T11:46:56.509Z,45.10
2022-11-02T11:49:55.171Z,45.04
2022-11-02T11:52:32.210Z,45.15
2022-11-02T11:55:02.575Z,44.76
2022-11-02T11:57:34.666Z,44.46
2022-11-02T12:00:27.294Z,44.78
2022-11-02T12:03:06.647Z,44.52
2022-11-02T12:06:25.534Z,45.13
2022-11-02T12:09:22.564Z,44.65
2022-11-02T12:12:18.372Z,44.98
2022-11-02T12:15:05.471Z,44.86
2022-11-02T12:17:51.491Z,44.78
2022-11-02T12:20:35.562Z,46.13
2022-11-02T12:23:28.872Z,45.24
2022-11-02T12:26:39.617Z,45.20
2022-11-02T12:30:04.638Z,45.10
2022-11-02T12:32:55.666Z,44.80
2022-11-02T12:35:59.534Z,45.10
2022-11-02T12:38:53.459Z,45.01
2022-11-02T12:41:48.182Z,45.03
2022-11-02T12:44:45.596Z,44.86
2022-11-02T12:47:29.697Z,44.84
2022-11-02T12:50:18.239Z,44.57
2022-11-02T12:53:15.545Z,44.58
2022-11-02T12:55:46.539Z,44.31
2022-11-02T12:58:29.071Z,44.32
2022-11-02T13:01:22.413Z,44.42
2022-11-02T13:04:15.398Z,44.38
2022-11-02T13:06:47.284Z,44.33
2022-11-02T13:09:52.250Z,44.50
2022-11-02T13:12:24.720Z,44.36
2022-11-02T13:14:58.002Z,43.72
2022-11-02T13:17:44.922Z,43.48
2022-11-02T13:20:18.412Z,43.43
2022-11-02T13:22:54.225Z,43.38
2022-11-02T13:25:42.425Z,43.33
2022-11-02T13:28:21.090Z,43.47
2022-11-02T13:30:48.229Z,43.14
2022-11-02T13:33:21.324Z,42.69
2022-11-02T13:35:50.239Z,42.58
2022-11-02T13:38:44.357Z,42.61
2022-11-02T13:41:35.094Z,42.87
2022-11-02T13:45:01.709Z,43.71
2022-11-02T13:48:06.023Z,43.35
2022-11-02T13:50:41.220Z,43.28
2022-11-02T13:53:20.850Z,43.19
2022-11-02T13:56:00.009Z,43.29
2022-11-02T13:58:33.916Z,43.29
2022-11-02T14:01:10.455Z,43.69
2022-11-02T14:04:08.328Z,43.42
2022-11-02T14:06:51.260Z,43.23
2022-11-02T14:09:39.686Z,43.24
2022-11-02T14:12:21.714Z,43.17
2022-11-02T14:15:16.393Z,43.26
2022-11-02T14:17:56.296Z,43.39
2022-11-02T14:20:40.912Z,43.36
2022-11-02T14:23:10.981Z,43.51
2022-11-02T14:25:58.389Z,43.49
2022-11-02T14:28:42.838Z,43.55
2022-11-02T14:31:15.568Z,43.46
2022-11-02T14:33:56.716Z,43.25
2022-11-02T14:36:59.007Z,43.53
2022-11-02T14:40:04.768Z,43.40
2022-11-02T14:42:43.691Z,43.36
2022-11-02T14:45:26.728Z,43.44
2022-11-02T14:48:04.462Z,43.24
2022-11-02T14:50:32.845Z,43.18
2022-11-02T14:53:25.110Z,43.69
2022-11-02T14:55:55.027Z,43.40
2022-11-02T14:58:50.379Z,43.60
2022-11-02T15:01:17.986Z,43.45
2022-11-02T15:03:45.840Z,43.55
2022-11-02T15:06:22.708Z,43.36
2022-11-02T15:08:59.483Z,43.66
2022-11-02T15:11:50.696Z,43.83
2022-11-02T15:14:35.876Z,43.99
2022-11-02T15:17:24.556Z,44.11
2022-11-02T15:19:58.213Z,44.19
2022-11-02T15:22:48.679Z,44.50
2022-11-02T15:25:27.721Z,44.43
2022-11-02T15:28:09.560Z,44.53
2022-11-02T15:30:50.025Z,44.66
2022-11-02T15:33:39.062Z,44.78
2022-11-02T15:36:14.569Z,44.69
2022-11-02T15:38:41.452Z,44.93
2022-11-02T15:41:43.738Z,44.98
2022-11-02T15:44:50.128Z,45.35
2022-11-02T15:47:35.070Z,45.23
2022-11-02T15:50:18.585Z,45.51
2022-11-02T15:53:22.159Z,45.47
2022-11-02T15:56:28.557Z,45.54
2022-11-02T15:59:07.088Z,45.82
2022-11-02T16:01:34.025Z,45.65
2022-11-02T16:04:04.710Z,45.83
2022-11-02T16:06:44.025Z,45.83
2022-11-02T16:09:33.269Z,46.11
2022-11-02T16:12:17.406Z,46.06
2022-11-02T16:14:51.608Z,46.29
2022-11-02T16:17:30.045Z,46.44
2022-11-02T16:20:19.174Z,46.43
2022-11-02T16:23:12.280Z,46.40
2022-11-02T16:25:46.059Z,46.42
2022-11-02T16:28:31.534Z,46.59
2022-11-02T16:31:12.745Z,46.82
2022-11-02T16:33:54.188Z,46.73
2022-11-02T16:36:26.745Z,46.95
2022-11-02T16:39:22.817Z,46.85
2022-11-02T16:41:52.506Z,47.05
2022-11-02T16:44:27.594Z,46.99
2022-11-02T16:47:17.986Z,47.13
2022-11-02T16:49:50.890Z,47.11
2022-11-02T16:52:38.870Z,47.01
2022-11-02T16:55:38.766Z,47.34
2022-11-02T16:58:08.427Z,47.40
2022-11-02T17:00:36.393Z,47.52
2022-11-02T17:03:15.316Z,47.56
2022-11-02T17:05:43.048Z,47.59
2022-11-02T17:08:31.487Z,47.64
2022-11-02T17:11:01.148Z,47.48
2022-11-02T17:13:32.109Z,47.48
2022-11-02T17:16:09.881Z,47.34
2022-11-02T17:18:37.072Z,47.64
2022-11-02T17:21:13.248Z,47.67
2022-11-02T17:23:49.880Z,47.85
2022-11-02T17:26:22.801Z,47.79
2022-11-02T17:29:02.297Z,47.81
2022-11-02T17:31:36.420Z,47.95
2022-11-02T17:34:14.052Z,47.99
2022-11-02T17:36:51.973Z,48.30
2022-11-02T17:39:20.669Z,48.16
2022-11-02T17:42:15.168Z,48.28
2022-11-02T17:44:42.211Z,48.25
2022-11-02T17:47:12.407Z,48.45
2022-11-02T17:49:39.267Z,48.58
2022-11-02T17:52:06.136Z,48.45
2022-11-02T17:54:32.959Z,48.47
2022-11-02T17:57:01.694Z,48.54
2022-11-02T17:59:29.029Z,48.47
2022-11-02T18:01:55.993Z,48.64
2022-11-02T18:04:22.893Z,48.48
2022-11-02T18:06:49.764Z,48.67
2022-11-02T18:09:19.697Z,48.71
2022-11-02T18:11:47.247Z,48.73
2022-11-02T18:14:16.712Z,48.83
2022-11-02T18:16:44.716Z,49.10
2022-11-02T18:19:12.393Z,48.91
2022-11-02T18:21:39.210Z,48.75
2022-11-02T18:24:06.688Z,48.97
2022-11-02T18:26:35.572Z,49.00
2022-11-02T18:29:04.835Z,48.98
2022-11-02T18:31:32.364Z,48.98
2022-11-02T18:33:59.189Z,48.88
2022-11-02T18:36:26.034Z,48.99
2022-11-02T18:38:53.031Z,49.16
2022-11-02T18:41:34.874Z,49.07
2022-11-02T18:44:08.932Z,49.31
2022-11-02T18:46:38.690Z,49.43
2022-11-02T18:49:05.680Z,49.35
2022-11-02T18:51:33.118Z,49.34
2022-11-02T18:54:03.425Z,49.54
2022-11-02T18:56:30.686Z,49.51
2022-11-02T18:58:57.993Z,49.50
2022-11-02T19:01:26.173Z,49.55
2022-11-02T19:03:56.550Z,49.71
2022-11-02T19:06:42.809Z,49.75
2022-11-02T19:09:21.282Z,49.65
2022-11-02T19:12:04.300Z,49.73
2022-11-02T19:14:51.513Z,49.74
2022-11-02T19:17:18.548Z,49.86
2022-11-02T19:19:46.495Z,49.68
2022-11-02T19:22:14.694Z,49.53
2022-11-02T19:24:41.918Z,49.84
2022-11-02T19:27:15.071Z,49.97
2022-11-02T19:29:41.862Z,49.91
2022-11-02T19:32:08.738Z,49.96
2022-11-02T19:34:36.735Z,50.17
2022-11-02T19:37:05.365Z,50.22
2022-11-02T19:39:32.582Z,50.13
2022-11-02T19:41:59.854Z,50.09
2022-11-02T19:44:26.998Z,50.20
2022-11-02T19:46:53.845Z,50.12
2022-11-02T19:49:20.719Z,50.16
2022-11-02T19:51:47.519Z,50.29
2022-11-02T19:54:14.540Z,50.16
2022-11-02T19:56:41.365Z,50.27
2022-11-02T19:59:08.230Z,50.23
2022-11-02T20:01:38.959Z,50.46
2022-11-02T20:04:06.188Z,50.34
2022-11-02T20:06:41.488Z,50.44
2022-11-02T20:09:18.280Z,50.30
2022-11-02T20:11:46.832Z,50.51
2022-11-02T20:14:16.318Z,50.53
2022-11-02T20:16:44.923Z,50.22
2022-11-02T20:19:12.075Z,50.63
2022-11-02T20:21:42.966Z,50.45
2022-11-02T20:24:11.557Z,50.53
2022-11-02T20:26:41.176Z,50.63
2022-11-02T20:29:10.885Z,50.45
2022-11-02T20:31:40.997Z,50.67
2022-11-02T20:34:08.597Z,50.52
2022-11-02T20:36:36.048Z,50.69
2022-11-02T20:39:05.410Z,50.37
2022-11-02T20:41:32.549Z,50.68
2022-11-02T20:44:01.920Z,50.76
2022-11-02T20:46:40.106Z,50.74
2022-11-02T20:49:20.823Z,50.62
2022-11-02T20:51:51.067Z,50.67
2022-11-02T20:54:19.353Z,50.78
2022-11-02T20:56:46.577Z,50.72
2022-11-02T20:59:13.412Z,50.71
2022-11-02T21:01:40.391Z,50.68
2022-11-02T21:04:07.565Z,50.79
2022-11-02T21:06:34.348Z,50.80
2022-11-02T21:09:01.340Z,50.95
2022-11-02T21:11:46.573Z,50.97
2022-11-02T21:14:13.331Z,50.94
2022-11-02T21:16:40.100Z,51.06
2022-11-02T21:19:07.408Z,50.99
2022-11-02T21:21:34.176Z,50.95
2022-11-02T21:24:00.995Z,51.07
2022-11-02T21:26:27.758Z,51.24
2022-11-02T21:28:54.546Z,51.04
2022-11-02T21:31:21.935Z,51.18
2022-11-02T21:33:49.935Z,51.37
2022-11-02T21:36:17.844Z,51.00
2022-11-02T21:38:45.376Z,51.41
2022-11-02T21:41:21.504Z,51.34
2022-11-02T21:43:51.735Z,51.07
2022-11-02T21:46:19.590Z,51.35
2022-11-02T21:48:46.609Z,51.25
2022-11-02T21:51:19.683Z,51.13
2022-11-02T21:53:47.635Z,51.42
2022-11-02T21:56:22.065Z,51.44
2022-11-02T21:58:49.223Z,51.39
2022-11-02T22:01:44.203Z,51.34
2022-11-02T22:04:25.351Z,51.41
2022-11-02T22:06:52.941Z,51.27
2022-11-02T22:09:20.395Z,51.48
2022-11-02T22:11:47.327Z,51.59
2022-11-02T22:14:14.267Z,51.19
2022-11-02T22:16:43.402Z,51.25
2022-11-02T22:19:15.134Z,51.57
2022-11-02T22:21:44.648Z,51.45
2022-11-02T22:24:12.209Z,51.32
2022-11-02T22:26:40.198Z,51.47
2022-11-02T22:29:07.483Z,51.56
2022-11-02T22:31:38.560Z,51.47
2022-11-02T22:34:07.867Z,51.57
2022-11-02T22:36:35.752Z,51.52
2022-11-02T22:39:04.918Z,51.78
2022-11-02T22:41:44.351Z,51.62
2022-11-02T22:44:20.894Z,51.86
2022-11-02T22:46:50.225Z,51.77
2022-11-02T22:49:19.368Z,51.99
2022-11-02T22:51:49.052Z,52.01
2022-11-02T22:54:18.958Z,52.07
2022-11-02T22:56:48.321Z,51.97
2022-11-02T22:59:15.858Z,51.71
2022-11-02T23:01:44.028Z,51.97
2022-11-02T23:04:12.144Z,52.12
2022-11-02T23:06:39.622Z,52.24
2022-11-02T23:09:06.927Z,52.07
2022-11-02T23:11:37.367Z,52.36
2022-11-02T23:14:14.350Z,52.38
2022-11-02T23:16:42.815Z,52.40
2022-11-02T23:19:23.492Z,52.62
2022-11-02T23:22:29.534Z,52.53
2022-11-02T23:25:15.140Z,52.73
2022-11-02T23:28:06.926Z,52.72
2022-11-02T23:30:55.248Z,53.03
2022-11-02T23:33:24.867Z,53.07
2022-11-02T23:36:10.068Z,53.24
2022-11-02T23:38:56.572Z,52.97
2022-11-02T23:41:23.515Z,53.23
2022-11-02T23:43:50.266Z,53.25
2022-11-02T23:46:20.237Z,53.55
2022-11-02T23:48:49.741Z,53.41
2022-11-02T23:51:38.004Z,53.41
2022-11-02T23:54:23.320Z,53.30
2022-11-02T23:56:50.184Z,53.44
2022-11-02T23:59:18.384Z,53.69
